• Join FlightAware (Why Join?)
  • Login
  • US Flag GB Flag 
23:04 EDT


 

Airport Tracker/Info


-or-


 

Live Flight TrackerFlight Track Log ✈ FDX1570 ✈ 06-Jul-2013 ✈ KMEM - KALB

Flight Track Log - Related Links

Times and Time Zones

All times are in EDT time to prevent confusion due to time zone crossing. See the FDX1570 flight status page for this flight to view local times or setup timezone preferences in your user account.

Time Position Orientation Groundspeed Altitude Reporting Facility
EDT Latitude Longitude Course Direction KTS MPH feet Rate Location/Type
04:26 35.0333 -89.9667 180° South 174 200 1,400  Level KMEM
04:27 34.9833 -89.9667 180° South 184 212 3,100 2,460 Climbing KMEM
04:28 34.9500 -89.9000 121° Southeast 287 330 5,900 3,060 Climbing KMEM
04:29 34.9833 -89.8333 59° Northeast 299 344 9,300 2,580 Climbing KMEM
04:30 35.0308 -89.7256 62° Northeast 343 395 11,200 1,860 Climbing Memphis Center
04:31 35.0717 -89.6061 67° East 377 434 13,100 2,220 Climbing Memphis Center
04:32 35.1169 -89.4761 67° East 395 455 15,700 2,400 Climbing Memphis Center
04:33 35.1639 -89.3436 67° East 414 476 18,000 2,100 Climbing Memphis Center
04:34 35.2147 -89.2058 66° East 432 497 20,000 2,160 Climbing Memphis Center
04:35 35.2761 -89.0700 61° Northeast 442 509 22,400 2,640 Climbing Memphis Center
04:36 35.3414 -88.9392 59° Northeast 459 528 25,300 2,400 Climbing Memphis Center
04:37 35.3833 -88.7933 71° East 451 519 27,200 1,500 Climbing Memphis Center
04:38 35.4231 -88.6450 72° East 451 519 28,300 1,440 Climbing Memphis Center
04:43 35.7540 -87.7940 72° East 535 616 36,700 1,560 Climbing FlightAware
04:44 35.8160 -87.6920 53° Northeast 534 615 37,800 960 Climbing FlightAware
04:45 35.8790 -87.5900 53° Northeast 532 612 38,100 120 Climbing FlightAware
04:45 35.9450 -87.4810 53° Northeast 530 610 38,000 -120 Descending FlightAware
04:46 36.0030 -87.3870 53° Northeast 530 610 38,000  Level FlightAware
04:46 36.0501 -87.3091 53° Northeast 530 610 38,000  Level FlightAware ADS-B
04:47 36.1169 -87.1979 53° Northeast 526 605 38,000  Level FlightAware ADS-B
04:48 36.1603 -87.1258 53° Northeast 523 602 38,000  Level FlightAware ADS-B
04:48 36.2164 -87.0322 53° Northeast 523 602 38,000  Level FlightAware ADS-B
04:49 36.2922 -86.9075 53° Northeast 523 602 38,000  Level FlightAware ADS-B
04:50 36.3690 -86.7780 54° Northeast 520 598 38,000  Level FlightAware
04:50 36.3907 -86.7417 53° Northeast 523 602 38,000  Level FlightAware ADS-B
04:52 36.4910 -86.5740 53° Northeast 520 598 38,000  Level FlightAware
04:52 36.5470 -86.4800 53° Northeast 518 596 38,000  Level FlightAware
04:53 36.6200 -86.3550 54° Northeast 517 595 38,000  Level FlightAware
04:54 36.6978 -86.2232 54° Northeast 517 595 38,000  Level FlightAware ADS-B
04:54 36.7407 -86.1511 53° Northeast 516 594 38,000 60 Level FlightAware ADS-B
04:55 36.7845 -86.0765 54° Northeast 518 596 38,100 720 Climbing FlightAware ADS-B
04:56 36.8285 -85.9993 55° Northeast 518 596 38,800 840 Climbing FlightAware ADS-B
04:56 36.8714 -85.9268 53° Northeast 518 596 39,000 180 Climbing FlightAware ADS-B
04:57 36.9207 -85.8422 54° Northeast 516 594 39,000  Level FlightAware ADS-B
04:57 36.9750 -85.7480 54° Northeast 516 594 39,000  Level FlightAware
04:58 37.0102 -85.6875 54° Northeast 516 594 39,000  Level FlightAware ADS-B
04:59 37.0876 -85.5532 54° Northeast 521 600 39,000  Level FlightAware ADS-B
04:59 37.1314 -85.4774 54° Northeast 522 601 39,000  Level FlightAware ADS-B
05:00 37.1751 -85.4014 54° Northeast 522 601 39,000  Level FlightAware ADS-B
05:00 37.2192 -85.3251 54° Northeast 521 600 39,000  Level FlightAware ADS-B
05:01 37.2681 -85.2392 54° Northeast 521 600 39,000  Level FlightAware ADS-B
05:01 37.3109 -85.1629 55° Northeast 521 600 39,000  Level FlightAware ADS-B
05:02 37.3533 -85.0892 54° Northeast 521 600 39,000  Level FlightAware ADS-B
05:02 37.4021 -85.0031 54° Northeast 520 598 39,000  Level FlightAware ADS-B
05:03 37.4720 -84.8803 54° Northeast 519 597 39,000  Level FlightAware ADS-B
05:04 37.5251 -84.7845 55° Northeast 517 595 39,000  Level FlightAware ADS-B
05:04 37.5766 -84.6939 54° Northeast 515 593 39,000  Level FlightAware ADS-B
05:05 37.6215 -84.6132 55° Northeast 515 593 39,000  Level FlightAware ADS-B
05:06 37.7100 -84.4540 55° Northeast 513 590 39,000  Level FlightAware
05:07 37.7720 -84.3420 55° Northeast 511 588 39,000  Level FlightAware
05:08 37.8346 -84.2292 55° Northeast 511 588 39,000  Level FlightAware ADS-B
05:08 37.8771 -84.1531 55° Northeast 512 589 39,000  Level FlightAware ADS-B
05:09 37.9177 -84.0793 55° Northeast 512 589 39,000  Level FlightAware ADS-B
05:09 37.9520 -84.0170 55° Northeast 511 588 39,000  Level FlightAware
05:09 37.9867 -83.9541 55° Northeast 511 588 39,000  Level FlightAware ADS-B
05:10 38.0369 -83.8630 55° Northeast 512 589 39,000  Level FlightAware ADS-B
05:13 38.2700 -83.4350 55° Northeast 511 588 39,000  Level FlightAware
05:14 38.3400 -83.3040 56° Northeast 510 587 39,000  Level FlightAware
05:14 38.3824 -83.2243 56° Northeast 511 588 39,000  Level FlightAware ADS-B
05:15 38.4510 -83.0970 55° Northeast 511 588 39,000  Level FlightAware
05:15 38.4709 -83.0602 55° Northeast 511 588 39,000  Level FlightAware ADS-B
05:17 38.5590 -82.8930 56° Northeast 510 587 39,000  Level FlightAware
05:17 38.6110 -82.7960 56° Northeast 509 586 39,000  Level FlightAware
05:18 38.6690 -82.6860 56° Northeast 507 583 39,000  Level FlightAware
05:19 38.7280 -82.5750 56° Northeast 507 583 39,000  Level FlightAware
05:19 38.7840 -82.4680 56° Northeast 505 581 39,000  Level FlightAware
05:20 38.8330 -82.3730 56° Northeast 504 580 39,000  Level FlightAware
05:21 38.8850 -82.2760 55° Northeast 502 578 39,000  Level FlightAware
05:21 38.9380 -82.1730 56° Northeast 501 577 39,000  Level FlightAware
05:22 38.9940 -82.0640 57° Northeast 500 575 39,000  Level FlightAware
05:23 39.0400 -81.9770 56° Northeast 500 575 39,000  Level FlightAware
05:23 39.0890 -81.8830 56° Northeast 499 574 39,000  Level FlightAware
05:24 39.1410 -81.7810 57° Northeast 499 574 39,000  Level FlightAware
05:25 39.1910 -81.6820 57° Northeast 499 574 39,000  Level FlightAware
05:26 39.2510 -81.5650 56° Northeast 499 574 39,000  Level FlightAware
05:26 39.3010 -81.4650 57° Northeast 500 575 39,000  Level FlightAware
05:27 39.3560 -81.3580 56° Northeast 501 577 39,000  Level FlightAware
05:28 39.4050 -81.2600 57° Northeast 502 578 39,000  Level FlightAware
05:28 39.4580 -81.1550 57° Northeast 501 577 39,000  Level FlightAware
05:29 39.5160 -81.0390 57° Northeast 502 578 39,000  Level FlightAware
05:30 39.5680 -80.9370 56° Northeast 502 578 39,000  Level FlightAware
05:30 39.6230 -80.8260 57° Northeast 502 578 39,000  Level FlightAware
05:31 39.6740 -80.7250 57° Northeast 502 578 39,000  Level FlightAware
05:32 39.7220 -80.6290 57° Northeast 502 578 39,000  Level FlightAware
05:32 39.7770 -80.5140 58° Northeast 503 579 39,000  Level FlightAware
05:33 39.8340 -80.4000 57° Northeast 503 579 39,000  Level FlightAware
05:34 39.8850 -80.2950 58° Northeast 503 579 39,000  Level FlightAware
05:35 39.9370 -80.1900 57° Northeast 502 578 39,000  Level FlightAware
05:35 39.9790 -80.1030 58° Northeast 503 579 39,000  Level FlightAware
05:36 40.0330 -79.9910 58° Northeast 503 579 39,000  Level FlightAware
05:37 40.0890 -79.8780 57° Northeast 503 579 39,000  Level FlightAware
05:37 40.1290 -79.7930 58° Northeast 502 578 39,000  Level FlightAware
05:38 40.1820 -79.6820 58° Northeast 502 578 39,000  Level FlightAware
05:39 40.2360 -79.5720 57° Northeast 503 579 39,000  Level FlightAware
05:39 40.2850 -79.4690 58° Northeast 502 578 39,000  Level FlightAware
05:40 40.3370 -79.3580 58° Northeast 502 578 39,000  Level FlightAware
05:41 40.3880 -79.2520 58° Northeast 502 578 39,000  Level FlightAware
05:41 40.4390 -79.1430 58° Northeast 502 578 39,000  Level FlightAware
05:42 40.4860 -79.0420 59° Northeast 502 578 39,000  Level FlightAware
05:43 40.5420 -78.9230 58° Northeast 502 578 39,000  Level FlightAware
05:44 40.5950 -78.8110 58° Northeast 501 577 39,000  Level FlightAware
05:44 40.6440 -78.7040 59° Northeast 502 578 39,000  Level FlightAware
05:45 40.6870 -78.6130 58° Northeast 502 578 39,000  Level FlightAware
05:46 40.7390 -78.5010 58° Northeast 503 579 39,000  Level FlightAware
05:46 40.7843 -78.4012 59° Northeast 503 579 39,000  Level FlightAware ADS-B
05:47 40.8360 -78.2880 59° Northeast 502 578 39,000  Level FlightAware
05:48 40.8900 -78.1730 58° Northeast 502 578 39,000  Level FlightAware
05:48 40.9390 -78.0770 56° Northeast 501 577 39,000  Level FlightAware
05:49 41.0058 -77.9555 54° Northeast 501 577 39,000  Level FlightAware ADS-B
05:50 41.0470 -77.8820 53° Northeast 501 577 39,000  Level FlightAware
05:50 41.0786 -77.8275 52° Northeast 500 575 39,000 -600 Level FlightAware ADS-B
05:50 41.1257 -77.7441 53° Northeast 499 574 38,500 -1,200 Descending FlightAware ADS-B
05:51 41.1725 -77.6604 53° Northeast 502 578 37,700 -1,320 Descending FlightAware ADS-B
05:52 41.2288 -77.5579 54° Northeast 508 585 36,900 -1,080 Descending FlightAware ADS-B
05:52 41.2700 -77.4850 53° Northeast 508 585 36,400 -1,140 Descending FlightAware
05:53 41.3117 -77.4097 54° Northeast 508 585 35,800 -1,320 Descending FlightAware ADS-B
05:53 41.3637 -77.3138 54° Northeast 509 586 35,100 -1,140 Descending FlightAware ADS-B
05:54 41.4075 -77.2350 53° Northeast 511 588 34,500 -1,080 Descending FlightAware ADS-B
05:54 41.4496 -77.1587 54° Northeast 511 588 34,000 -1,020 Descending FlightAware ADS-B
05:55 41.5070 -77.0540 54° Northeast 511 588 33,200 -1,080 Descending FlightAware
05:55 41.5277 -77.0158 54° Northeast 511 588 33,000 -360 Descending FlightAware ADS-B
05:56 41.5704 -76.9368 54° Northeast 512 589 33,000  Level FlightAware ADS-B
05:56 41.6217 -76.8422 54° Northeast 512 589 33,000  Level FlightAware ADS-B
05:57 41.6633 -76.7651 54° Northeast 512 589 33,000  Level FlightAware ADS-B
05:57 41.7116 -76.6749 54° Northeast 515 593 33,000  Level FlightAware ADS-B
05:58 41.7547 -76.5949 54° Northeast 514 592 33,000  Level FlightAware ADS-B
05:58 41.7967 -76.5175 54° Northeast 513 590 33,000  Level FlightAware ADS-B
05:59 41.8428 -76.4322 54° Northeast 513 590 33,000  Level FlightAware ADS-B
06:00 41.8877 -76.3465 55° Northeast 513 590 33,000 -900 Level FlightAware ADS-B
06:00 41.9387 -76.2512 54° Northeast 509 586 32,000 -2,460 Descending FlightAware ADS-B
06:01 42.0013 -76.1334 54° Northeast 506 582 29,600 -3,420 Descending FlightAware ADS-B
06:02 42.0690 -76.0050 55° Northeast 509 586 26,600 -3,300 Descending FlightAware
06:02 42.1190 -75.9090 55° Northeast 508 585 24,700 -1,920 Descending FlightAware
06:03 42.1800 -75.7930 55° Northeast 505 581 24,000 -1,200 Descending FlightAware
06:04 42.2350 -75.6880 55° Northeast 502 578 23,100 -2,160 Descending FlightAware
06:05 42.2880 -75.5860 55° Northeast 493 567 21,100 -2,460 Descending FlightAware
06:05 42.3500 -75.4650 55° Northeast 489 563 19,500 -1,860 Descending FlightAware
06:06 42.3980 -75.3740 54° Northeast 474 545 18,500 -1,740 Descending FlightAware
06:07 42.4450 -75.2810 56° Northeast 467 537 17,300 -840 Descending FlightAware
06:07 42.4950 -75.1770 57° Northeast 467 537 17,300  Level FlightAware
06:08 42.5320 -75.1000 57° Northeast 467 537 17,300  Level FlightAware
06:08 42.5560 -75.0490 57° Northeast 467 537 17,300  Level FlightAware
06:09 42.6030 -74.9510 57° Northeast 467 537 17,300  Level FlightAware
06:10 42.6400 -74.8740 57° Northeast 467 537 17,300 -5,280 Level FlightAware
06:10 42.5786 -74.6761 57° Northeast 431 496 11,200 -4,080 Descending Boston Center
06:11 42.6042 -74.5358 76° East 373 429 11,000 -300 Descending Boston Center
06:12 42.6022 -74.4089 91° East 348 400 10,700 -900 Descending Boston Center
06:13 42.5917 -74.2931 97° East 307 353 9,300 -1,560 Descending Boston Center
06:14 42.5850 -74.1800 95° East 305 351 7,700 -1,620 Descending Boston Center
06:15 42.5783 -74.0697 95° East 294 338 6,100 -1,560 Descending Boston Center
06:16 42.5819 -73.9628 87° East 281 323 4,600 -1,200 Descending Boston Center
06:17 42.5847 -73.9036 86° East 247 284 3,800 -1,020 Descending Boston Center
06:18 42.6150 -73.8308 61° Northeast 202 232 2,600 -720 Descending Boston Center
06:19 42.6406 -73.7750 58° Northeast 173 199 2,400 -660 Descending Boston Center
06:20 42.6861 -73.8042 335° Northwest 122 140 1,300 -900 Descending Boston Center
06:22 42.7236 -73.8081 356° North 124 143 600 -720 Descending Boston Center